createdAt,value
2023-01-29T00:09:08.053Z,1018.6
2023-01-29T00:19:14.411Z,1018.5
2023-01-29T00:29:20.735Z,1018.3
2023-01-29T00:39:33.708Z,1018.2
2023-01-29T00:49:35.056Z,1018.2
2023-01-29T00:59:41.456Z,1018.3
2023-01-29T01:09:47.718Z,1018.2
2023-01-29T01:19:54.118Z,1018.2
2023-01-29T01:30:00.419Z,1018.4
2023-01-29T01:40:06.785Z,1018.2
2023-01-29T01:50:13.240Z,1017.8
2023-01-29T02:00:19.598Z,1017.8
2023-01-29T02:10:25.844Z,1017.8
2023-01-29T02:20:32.175Z,1017.9
2023-01-29T02:30:38.649Z,1018
2023-01-29T02:40:44.875Z,1018.2
2023-01-29T02:50:52.796Z,1018.4
2023-01-29T03:00:59.285Z,1018.5
2023-01-29T03:11:05.481Z,1018.3
2023-01-29T03:21:11.850Z,1018
2023-01-29T03:31:18.349Z,1018
2023-01-29T03:41:24.551Z,1018.2
2023-01-29T03:51:30.870Z,1018.3
2023-01-29T04:01:37.298Z,1018.3
2023-01-29T04:11:43.574Z,1018.1
2023-01-29T04:21:49.903Z,1017.9
2023-01-29T04:31:56.275Z,1017.7
2023-01-29T04:42:02.602Z,1017.8
2023-01-29T04:52:08.961Z,1017.7
2023-01-29T05:02:15.285Z,1017.4
2023-01-29T05:12:21.644Z,1017.5
2023-01-29T05:22:27.984Z,1017.5
2023-01-29T05:32:34.357Z,1017.3
2023-01-29T05:42:40.684Z,1017.3
2023-01-29T05:52:47.024Z,1017.3
2023-01-29T06:02:53.442Z,1017.4
2023-01-29T06:12:59.721Z,1017.5
2023-01-29T06:23:07.665Z,1017.6
2023-01-29T06:33:15.598Z,1017.8
2023-01-29T06:43:21.956Z,1017.9
2023-01-29T06:53:29.914Z,1017.9
2023-01-29T07:03:36.270Z,1017.9
2023-01-29T07:13:42.620Z,1017.8
2023-01-29T07:23:48.955Z,1017.8
2023-01-29T07:33:56.890Z,1017.8
2023-01-29T07:44:03.252Z,1017.8
2023-01-29T07:54:09.581Z,1017.6
2023-01-29T08:04:15.935Z,1017.7
2023-01-29T08:14:22.272Z,1017.7
2023-01-29T08:24:41.478Z,1017.8
2023-01-29T08:34:34.993Z,1017.7
2023-01-29T08:44:41.328Z,1017.4
2023-01-29T08:54:47.659Z,1017.5
2023-01-29T09:04:54.009Z,1017.6
2023-01-29T09:15:00.369Z,1017.5
2023-01-29T09:25:08.302Z,1017.5
2023-01-29T09:45:22.587Z,1017.2
2023-01-29T09:55:28.927Z,1017.2
2023-01-29T10:05:35.303Z,1017.2
2023-01-29T10:15:41.613Z,1017.1
2023-01-29T10:25:47.968Z,1017.1
2023-01-29T10:35:55.904Z,1017.2
2023-01-29T10:46:00.711Z,1017
2023-01-29T10:56:20.916Z,1016.7
2023-01-29T11:06:13.395Z,1016.4
2023-01-29T11:16:19.739Z,1016.4
2023-01-29T11:26:26.101Z,1016.3
2023-01-29T11:36:32.415Z,1016.3
2023-01-29T11:46:38.780Z,1016.1
2023-01-29T11:56:45.097Z,1016
2023-01-29T12:06:53.064Z,1015.8
2023-01-29T12:17:01.122Z,1015.7
2023-01-29T12:27:08.928Z,1015.2
2023-01-29T12:37:16.904Z,1014.9
2023-01-29T12:47:23.239Z,1014.6
2023-01-29T12:57:29.571Z,1014.4
2023-01-29T13:07:35.968Z,1014.2
2023-01-29T13:17:42.271Z,1013.9
2023-01-29T13:27:50.215Z,1013.9
2023-01-29T13:37:56.589Z,1013.8
2023-01-29T13:48:02.896Z,1013.9
2023-01-29T13:58:09.267Z,1014
2023-01-29T14:08:15.636Z,1014
2023-01-29T14:18:21.958Z,1013.9
2023-01-29T14:28:28.310Z,1013.9
2023-01-29T14:38:34.635Z,1013.8
2023-01-29T14:48:40.987Z,1013.8
2023-01-29T14:58:47.361Z,1013.8
2023-01-29T15:08:53.720Z,1013.8
2023-01-29T15:19:01.620Z,1013.7
2023-01-29T15:29:07.994Z,1013.7
2023-01-29T15:39:14.323Z,1013.6
2023-01-29T15:49:20.698Z,1013.4
2023-01-29T15:59:27.038Z,1013.4
2023-01-29T16:09:33.358Z,1013.3
2023-01-29T16:19:39.708Z,1013.3
2023-01-29T16:29:46.072Z,1013.2
2023-01-29T16:39:52.404Z,1013.2
2023-01-29T16:49:58.775Z,1013
2023-01-29T17:00:05.101Z,1012.9
2023-01-29T17:10:11.453Z,1012.8
2023-01-29T17:20:17.815Z,1012.7
2023-01-29T17:30:24.191Z,1012.6
2023-01-29T17:40:32.093Z,1012.5
2023-01-29T17:50:38.425Z,1012.5
2023-01-29T18:00:44.773Z,1012.6
2023-01-29T18:10:52.722Z,1012.4
2023-01-29T18:20:59.083Z,1012.3
2023-01-29T18:31:05.793Z,1012.3
2023-01-29T18:41:11.777Z,1012
2023-01-29T18:51:18.149Z,1011.8
2023-01-29T19:01:24.544Z,1011.8
2023-01-29T19:11:30.816Z,1011.8
2023-01-29T19:21:37.160Z,1011.6
2023-01-29T19:31:43.574Z,1011.5
2023-01-29T19:41:49.902Z,1011.5
2023-01-29T19:51:56.224Z,1011.3
2023-01-29T20:02:02.595Z,1010.9
2023-01-29T20:12:08.906Z,1010.9
2023-01-29T20:22:15.233Z,1010.8
2023-01-29T20:32:21.599Z,1010.5
2023-01-29T20:42:27.956Z,1010.2
2023-01-29T20:52:34.304Z,1010.1
2023-01-29T21:02:40.629Z,1010.1
2023-01-29T21:12:46.990Z,1009.9
2023-01-29T21:22:53.343Z,1009.9
2023-01-29T21:32:59.681Z,1009.9
2023-01-29T21:43:06.028Z,1009.6
2023-01-29T21:53:13.971Z,1009.8
2023-01-29T22:03:20.317Z,1009.9
2023-01-29T22:13:26.660Z,1009.9
2023-01-29T22:23:33.009Z,1009.8
2023-01-29T22:33:40.947Z,1009.7
2023-01-29T22:43:48.956Z,1009.7
2023-01-29T22:53:55.232Z,1009.5
2023-01-29T23:04:01.603Z,1009.3
2023-01-29T23:14:07.960Z,1008.9
2023-01-29T23:24:15.876Z,1008.5
2023-01-29T23:34:23.868Z,1008.4
2023-01-29T23:44:30.174Z,1008.4
2023-01-29T23:54:36.539Z,1008.4
